LFBO 210400Z AUTO 27008KT CAVOK 01/M00 Q1030 NOSIG

ElémentsDécodage
LFBO Station météo située sur l'aérodrome de TOULOUSE Blagnac
210400Z émis le 21 du mois à 04h00 UTC
AUTO Bulletin édité par un automate
27008KT vent du 270°, 08 noeuds
CAVOK Ceiling And Visibility OK
- Visibilité de 10 Km ou plus
- Pas de nuage au-dessous de 1500m ou au-dessous de l'altitude minimale du secteur la plus élevée (si>1500m) et absence de CB
- pas de temps présent significatif
01/M00 température 01°C, point de rosée 00°C
 soit une humidité relative de 93%
Q1030 la pression au niveau de la mer (QNH) est de 1030 hPa
NOSIG Pas de changement significatif prévu au cours des deux heures suivant l'heure de l'observation